sensor_id;sensor_type;location;lat;lon;timestamp;pressure;altitude;pressure_sealevel;temperature;humidity
37202;BME280;37799;52.390;6.136;2024-03-22T00:02:02;102039.09;;;10.39;100.00
37202;BME280;37799;52.390;6.136;2024-03-22T00:04:27;102033.84;;;10.56;100.00
37202;BME280;37799;52.390;6.136;2024-03-22T00:06:52;102032.09;;;10.58;100.00
37202;BME280;37799;52.390;6.136;2024-03-22T00:09:18;102027.78;;;10.55;100.00
37202;BME280;37799;52.390;6.136;2024-03-22T00:11:44;102023.44;;;10.59;100.00
37202;BME280;37799;52.390;6.136;2024-03-22T00:14:10;102014.69;;;10.75;100.00
37202;BME280;37799;52.390;6.136;2024-03-22T00:16:36;102005.91;;;10.91;100.00
37202;BME280;37799;52.390;6.136;2024-03-22T00:19:02;102006.75;;;10.92;100.00
37202;BME280;37799;52.390;6.136;2024-03-22T00:21:27;102001.56;;;10.95;100.00
37202;BME280;37799;52.390;6.136;2024-03-22T00:23:53;101993.53;;;11.19;100.00
37202;BME280;37799;52.390;6.136;2024-03-22T00:26:19;101989.31;;;11.12;100.00
37202;BME280;37799;52.390;6.136;2024-03-22T00:28:44;101985.00;;;11.11;100.00
37202;BME280;37799;52.390;6.136;2024-03-22T00:31:09;101976.50;;;10.97;100.00
37202;BME280;37799;52.390;6.136;2024-03-22T00:33:35;101988.31;;;11.24;100.00
37202;BME280;37799;52.390;6.136;2024-03-22T00:36:00;101989.84;;;11.43;100.00
37202;BME280;37799;52.390;6.136;2024-03-22T00:38:26;101984.72;;;11.39;100.00
37202;BME280;37799;52.390;6.136;2024-03-22T00:40:52;101989.97;;;11.34;100.00
37202;BME280;37799;52.390;6.136;2024-03-22T00:43:17;101983.09;;;11.29;100.00
37202;BME280;37799;52.390;6.136;2024-03-22T00:45:43;101972.50;;;11.48;100.00
37202;BME280;37799;52.390;6.136;2024-03-22T00:48:08;101976.84;;;11.48;100.00
37202;BME280;37799;52.390;6.136;2024-03-22T00:50:33;101967.44;;;11.36;100.00
37202;BME280;37799;52.390;6.136;2024-03-22T00:52:59;101959.59;;;11.41;100.00
37202;BME280;37799;52.390;6.136;2024-03-22T00:55:24;101970.84;;;11.41;100.00
37202;BME280;37799;52.390;6.136;2024-03-22T00:57:50;101952.81;;;11.31;100.00
37202;BME280;37799;52.390;6.136;2024-03-22T01:00:17;101951.91;;;11.36;100.00
37202;BME280;37799;52.390;6.136;2024-03-22T01:02:43;101944.03;;;11.42;100.00
37202;BME280;37799;52.390;6.136;2024-03-22T01:05:08;101928.50;;;11.41;100.00
37202;BME280;37799;52.390;6.136;2024-03-22T01:07:33;101930.31;;;11.33;100.00
37202;BME280;37799;52.390;6.136;2024-03-22T01:09:59;101922.72;;;11.16;100.00
37202;BME280;37799;52.390;6.136;2024-03-22T01:12:25;101921.66;;;11.32;100.00
37202;BME280;37799;52.390;6.136;2024-03-22T01:14:50;101918.03;;;11.48;100.00
37202;BME280;37799;52.390;6.136;2024-03-22T01:17:16;101923.28;;;11.42;100.00
37202;BME280;37799;52.390;6.136;2024-03-22T01:19:41;101926.72;;;11.43;100.00
37202;BME280;37799;52.390;6.136;2024-03-22T01:22:06;101919.78;;;11.45;100.00
37202;BME280;37799;52.390;6.136;2024-03-22T01:24:32;101919.06;;;11.35;100.00
37202;BME280;37799;52.390;6.136;2024-03-22T01:26:57;101921.78;;;11.25;100.00
37202;BME280;37799;52.390;6.136;2024-03-22T01:29:22;101919.00;;;11.38;100.00
37202;BME280;37799;52.390;6.136;2024-03-22T01:31:48;101922.38;;;11.45;100.00
37202;BME280;37799;52.390;6.136;2024-03-22T01:34:13;101914.69;;;11.39;100.00
37202;BME280;37799;52.390;6.136;2024-03-22T01:36:39;101915.50;;;11.42;100.00
37202;BME280;37799;52.390;6.136;2024-03-22T01:39:04;101903.34;;;11.47;100.00
37202;BME280;37799;52.390;6.136;2024-03-22T01:41:29;101900.75;;;11.47;100.00
37202;BME280;37799;52.390;6.136;2024-03-22T01:43:55;101909.53;;;11.36;100.00
37202;BME280;37799;52.390;6.136;2024-03-22T01:46:20;101906.97;;;11.33;100.00
37202;BME280;37799;52.390;6.136;2024-03-22T01:48:45;101906.06;;;11.37;100.00
37202;BME280;37799;52.390;6.136;2024-03-22T01:51:11;101895.50;;;11.52;100.00
37202;BME280;37799;52.390;6.136;2024-03-22T01:53:37;101884.28;;;11.50;100.00
37202;BME280;37799;52.390;6.136;2024-03-22T01:56:03;101881.53;;;11.62;100.00
37202;BME280;37799;52.390;6.136;2024-03-22T01:58:28;101883.97;;;11.71;100.00
37202;BME280;37799;52.390;6.136;2024-03-22T02:00:54;101885.88;;;11.59;100.00
37202;BME280;37799;52.390;6.136;2024-03-22T02:03:19;101890.16;;;11.64;100.00
37202;BME280;37799;52.390;6.136;2024-03-22T02:05:45;101885.81;;;11.65;100.00
37202;BME280;37799;52.390;6.136;2024-03-22T02:08:10;101886.78;;;11.56;100.00
37202;BME280;37799;52.390;6.136;2024-03-22T02:10:35;101884.13;;;11.62;100.00
37202;BME280;37799;52.390;6.136;2024-03-22T02:13:00;101879.00;;;11.59;100.00
37202;BME280;37799;52.390;6.136;2024-03-22T02:15:26;101886.94;;;11.47;100.00
37202;BME280;37799;52.390;6.136;2024-03-22T02:17:51;101880.69;;;11.59;100.00
37202;BME280;37799;52.390;6.136;2024-03-22T02:20:17;101867.88;;;11.49;100.00
37202;BME280;37799;52.390;6.136;2024-03-22T02:22:42;101864.25;;;11.61;100.00
37202;BME280;37799;52.390;6.136;2024-03-22T02:25:07;101873.78;;;11.58;100.00
37202;BME280;37799;52.390;6.136;2024-03-22T02:27:34;101861.81;;;11.50;100.00
37202;BME280;37799;52.390;6.136;2024-03-22T02:29:59;101860.78;;;11.62;100.00
37202;BME280;37799;52.390;6.136;2024-03-22T02:32:24;101860.84;;;11.56;100.00
37202;BME280;37799;52.390;6.136;2024-03-22T02:34:49;101860.06;;;11.51;100.00
37202;BME280;37799;52.390;6.136;2024-03-22T02:37:15;101857.25;;;11.66;100.00
37202;BME280;37799;52.390;6.136;2024-03-22T02:39:40;101850.47;;;11.56;100.00
37202;BME280;37799;52.390;6.136;2024-03-22T02:42:05;101843.44;;;11.64;100.00
37202;BME280;37799;52.390;6.136;2024-03-22T02:44:31;101841.88;;;11.54;100.00
37202;BME280;37799;52.390;6.136;2024-03-22T02:46:56;101835.69;;;11.63;100.00
37202;BME280;37799;52.390;6.136;2024-03-22T02:49:21;101830.59;;;11.55;100.00
37202;BME280;37799;52.390;6.136;2024-03-22T02:51:47;101827.09;;;11.58;100.00
37202;BME280;37799;52.390;6.136;2024-03-22T02:54:12;101825.38;;;11.58;100.00
37202;BME280;37799;52.390;6.136;2024-03-22T02:56:37;101813.03;;;11.75;100.00
37202;BME280;37799;52.390;6.136;2024-03-22T02:59:03;101817.47;;;11.67;100.00
37202;BME280;37799;52.390;6.136;2024-03-22T03:01:28;101809.09;;;11.48;100.00
37202;BME280;37799;52.390;6.136;2024-03-22T03:03:53;101801.53;;;11.33;100.00
37202;BME280;37799;52.390;6.136;2024-03-22T03:06:19;101796.09;;;11.50;100.00
37202;BME280;37799;52.390;6.136;2024-03-22T03:08:45;101785.97;;;11.33;100.00
37202;BME280;37799;52.390;6.136;2024-03-22T03:11:11;101785.91;;;11.38;100.00
37202;BME280;37799;52.390;6.136;2024-03-22T03:13:36;101782.50;;;11.33;100.00
37202;BME280;37799;52.390;6.136;2024-03-22T03:16:02;101770.34;;;11.38;100.00
37202;BME280;37799;52.390;6.136;2024-03-22T03:18:27;101764.56;;;11.17;100.00
37202;BME280;37799;52.390;6.136;2024-03-22T03:20:53;101748.84;;;11.30;100.00
37202;BME280;37799;52.390;6.136;2024-03-22T03:23:18;101743.72;;;11.25;100.00
37202;BME280;37799;52.390;6.136;2024-03-22T03:25:43;101734.13;;;11.30;100.00
37202;BME280;37799;52.390;6.136;2024-03-22T03:28:09;101734.28;;;11.21;100.00
37202;BME280;37799;52.390;6.136;2024-03-22T03:30:34;101732.81;;;11.02;100.00
37202;BME280;37799;52.390;6.136;2024-03-22T03:33:00;101720.69;;;11.04;100.00
37202;BME280;37799;52.390;6.136;2024-03-22T03:35:25;101711.06;;;11.13;100.00
37202;BME280;37799;52.390;6.136;2024-03-22T03:37:51;101712.69;;;11.22;100.00
37202;BME280;37799;52.390;6.136;2024-03-22T03:40:16;101708.25;;;11.29;100.00
37202;BME280;37799;52.390;6.136;2024-03-22T03:42:41;101717.06;;;11.17;100.00
37202;BME280;37799;52.390;6.136;2024-03-22T03:45:07;101726.53;;;11.21;100.00
37202;BME280;37799;52.390;6.136;2024-03-22T03:47:32;101723.72;;;11.35;100.00
37202;BME280;37799;52.390;6.136;2024-03-22T03:49:58;101724.63;;;11.31;100.00
37202;BME280;37799;52.390;6.136;2024-03-22T03:52:24;101717.69;;;11.33;100.00
37202;BME280;37799;52.390;6.136;2024-03-22T03:54:49;101697.94;;;11.24;100.00
37202;BME280;37799;52.390;6.136;2024-03-22T03:57:14;101706.66;;;11.20;100.00
37202;BME280;37799;52.390;6.136;2024-03-22T03:59:39;101704.78;;;11.28;100.00
37202;BME280;37799;52.390;6.136;2024-03-22T04:02:05;101698.69;;;11.31;100.00
37202;BME280;37799;52.390;6.136;2024-03-22T04:04:30;101702.41;;;11.14;100.00
37202;BME280;37799;52.390;6.136;2024-03-22T04:06:55;101700.56;;;11.22;100.00
37202;BME280;37799;52.390;6.136;2024-03-22T04:09:21;101702.81;;;11.44;100.00
37202;BME280;37799;52.390;6.136;2024-03-22T04:11:46;101691.81;;;11.30;100.00
37202;BME280;37799;52.390;6.136;2024-03-22T04:14:12;101688.44;;;11.25;100.00
37202;BME280;37799;52.390;6.136;2024-03-22T04:16:38;101688.50;;;11.21;100.00
37202;BME280;37799;52.390;6.136;2024-03-22T04:19:03;101708.88;;;11.43;100.00
37202;BME280;37799;52.390;6.136;2024-03-22T04:21:28;101699.53;;;11.33;100.00
37202;BME280;37799;52.390;6.136;2024-03-22T04:23:54;101700.47;;;11.29;100.00
37202;BME280;37799;52.390;6.136;2024-03-22T04:26:19;101701.06;;;11.46;100.00
37202;BME280;37799;52.390;6.136;2024-03-22T04:28:44;101704.56;;;11.42;100.00
37202;BME280;37799;52.390;6.136;2024-03-22T04:31:10;101708.84;;;11.46;100.00
37202;BME280;37799;52.390;6.136;2024-03-22T04:33:36;101702.28;;;11.23;100.00
37202;BME280;37799;52.390;6.136;2024-03-22T04:36:02;101701.16;;;11.40;100.00
37202;BME280;37799;52.390;6.136;2024-03-22T04:38:29;101704.56;;;11.43;100.00
37202;BME280;37799;52.390;6.136;2024-03-22T04:40:55;101694.53;;;11.22;100.00
37202;BME280;37799;52.390;6.136;2024-03-22T04:43:21;101704.22;;;11.09;100.00
37202;BME280;37799;52.390;6.136;2024-03-22T04:45:47;101697.06;;;11.25;100.00
37202;BME280;37799;52.390;6.136;2024-03-22T04:48:14;101693.50;;;11.34;100.00
37202;BME280;37799;52.390;6.136;2024-03-22T04:50:40;101696.19;;;11.26;100.00
37202;BME280;37799;52.390;6.136;2024-03-22T04:53:05;101699.81;;;11.14;100.00
37202;BME280;37799;52.390;6.136;2024-03-22T04:55:31;101702.53;;;11.05;100.00
37202;BME280;37799;52.390;6.136;2024-03-22T04:57:58;101706.63;;;11.21;100.00
37202;BME280;37799;52.390;6.136;2024-03-22T05:00:23;101699.72;;;11.19;100.00
37202;BME280;37799;52.390;6.136;2024-03-22T05:02:50;101704.91;;;11.19;100.00
37202;BME280;37799;52.390;6.136;2024-03-22T05:05:15;101697.97;;;11.22;100.00
37202;BME280;37799;52.390;6.136;2024-03-22T05:07:41;101695.16;;;11.36;100.00
37202;BME280;37799;52.390;6.136;2024-03-22T05:10:06;101699.84;;;11.13;100.00
37202;BME280;37799;52.390;6.136;2024-03-22T05:12:32;101701.66;;;11.05;100.00
37202;BME280;37799;52.390;6.136;2024-03-22T05:14:57;101701.50;;;11.17;100.00
37202;BME280;37799;52.390;6.136;2024-03-22T05:17:22;101699.16;;;11.00;100.00
37202;BME280;37799;52.390;6.136;2024-03-22T05:19:48;101698.34;;;10.97;100.00
37202;BME280;37799;52.390;6.136;2024-03-22T05:22:13;101693.16;;;10.97;100.00
37202;BME280;37799;52.390;6.136;2024-03-22T05:24:38;101696.66;;;10.92;100.00
37202;BME280;37799;52.390;6.136;2024-03-22T05:27:04;101693.00;;;11.06;100.00
37202;BME280;37799;52.390;6.136;2024-03-22T05:29:29;101688.81;;;10.99;100.00
37202;BME280;37799;52.390;6.136;2024-03-22T05:31:54;101682.00;;;10.90;100.00
37202;BME280;37799;52.390;6.136;2024-03-22T05:34:20;101682.06;;;10.87;100.00
37202;BME280;37799;52.390;6.136;2024-03-22T05:36:45;101685.44;;;10.92;100.00
37202;BME280;37799;52.390;6.136;2024-03-22T05:39:11;101678.69;;;10.80;100.00
37202;BME280;37799;52.390;6.136;2024-03-22T05:41:37;101676.94;;;10.82;100.00
37202;BME280;37799;52.390;6.136;2024-03-22T05:44:02;101677.69;;;10.90;100.00
37202;BME280;37799;52.390;6.136;2024-03-22T05:46:28;101675.06;;;10.92;100.00
37202;BME280;37799;52.390;6.136;2024-03-22T05:48:54;101671.59;;;10.93;100.00
37202;BME280;37799;52.390;6.136;2024-03-22T05:51:19;101665.63;;;10.88;100.00
37202;BME280;37799;52.390;6.136;2024-03-22T05:53:45;101670.22;;;10.68;100.00
37202;BME280;37799;52.390;6.136;2024-03-22T05:56:10;101662.22;;;10.86;100.00
37202;BME280;37799;52.390;6.136;2024-03-22T05:58:35;101657.16;;;10.75;100.00
37202;BME280;37799;52.390;6.136;2024-03-22T06:01:02;101657.97;;;10.82;100.00
37202;BME280;37799;52.390;6.136;2024-03-22T06:03:28;101666.50;;;10.87;100.00
37202;BME280;37799;52.390;6.136;2024-03-22T06:05:53;101668.16;;;10.94;100.00
37202;BME280;37799;52.390;6.136;2024-03-22T06:08:21;101655.13;;;10.99;100.00
37202;BME280;37799;52.390;6.136;2024-03-22T06:10:48;101656.25;;;10.78;100.00
37202;BME280;37799;52.390;6.136;2024-03-22T06:13:13;101652.78;;;10.82;100.00
37202;BME280;37799;52.390;6.136;2024-03-22T06:15:38;101648.41;;;10.85;100.00
37202;BME280;37799;52.390;6.136;2024-03-22T06:18:05;101644.25;;;10.74;100.00
37202;BME280;37799;52.390;6.136;2024-03-22T06:20:30;101651.97;;;10.77;100.00
37202;BME280;37799;52.390;6.136;2024-03-22T06:22:56;101656.41;;;10.69;100.00
37202;BME280;37799;52.390;6.136;2024-03-22T06:25:22;101655.47;;;10.73;100.00
37202;BME280;37799;52.390;6.136;2024-03-22T06:27:47;101659.69;;;10.80;100.00
37202;BME280;37799;52.390;6.136;2024-03-22T06:30:13;101658.16;;;10.65;100.00
37202;BME280;37799;52.390;6.136;2024-03-22T06:32:38;101656.19;;;10.84;100.00
37202;BME280;37799;52.390;6.136;2024-03-22T06:35:03;101657.97;;;10.82;100.00
37202;BME280;37799;52.390;6.136;2024-03-22T06:37:30;101661.53;;;10.72;100.00
37202;BME280;37799;52.390;6.136;2024-03-22T06:39:56;101656.03;;;10.96;100.00
37202;BME280;37799;52.390;6.136;2024-03-22T06:42:21;101655.88;;;11.05;100.00
37202;BME280;37799;52.390;6.136;2024-03-22T06:44:46;101659.28;;;11.10;100.00
37202;BME280;37799;52.390;6.136;2024-03-22T06:47:12;101663.66;;;11.05;100.00
37202;BME280;37799;52.390;6.136;2024-03-22T06:49:37;101662.16;;;10.89;100.00
37202;BME280;37799;52.390;6.136;2024-03-22T06:52:02;101671.53;;;10.99;100.00
37202;BME280;37799;52.390;6.136;2024-03-22T06:54:28;101673.22;;;11.00;100.00
37202;BME280;37799;52.390;6.136;2024-03-22T06:56:53;101666.28;;;11.02;100.00
37202;BME280;37799;52.390;6.136;2024-03-22T06:59:18;101659.31;;;11.07;100.00
37202;BME280;37799;52.390;6.136;2024-03-22T07:01:44;101657.59;;;11.05;100.00
37202;BME280;37799;52.390;6.136;2024-03-22T07:04:09;101659.31;;;11.07;100.00
37202;BME280;37799;52.390;6.136;2024-03-22T07:06:34;101656.72;;;11.07;100.00
37202;BME280;37799;52.390;6.136;2024-03-22T07:09:00;101653.09;;;11.17;100.00
37202;BME280;37799;52.390;6.136;2024-03-22T07:11:25;101650.31;;;11.30;100.00
37202;BME280;37799;52.390;6.136;2024-03-22T07:13:50;101652.13;;;11.25;100.00
37202;BME280;37799;52.390;6.136;2024-03-22T07:16:15;101650.22;;;11.36;100.00
37202;BME280;37799;52.390;6.136;2024-03-22T07:18:41;101638.94;;;11.38;100.00
37202;BME280;37799;52.390;6.136;2024-03-22T07:21:07;101643.22;;;11.41;100.00
37202;BME280;37799;52.390;6.136;2024-03-22T07:23:32;101636.28;;;11.41;100.00
37202;BME280;37799;52.390;6.136;2024-03-22T07:25:57;101634.56;;;11.42;100.00
37202;BME280;37799;52.390;6.136;2024-03-22T07:28:23;101636.25;;;11.43;100.00
37202;BME280;37799;52.390;6.136;2024-03-22T07:30:48;101639.66;;;11.48;100.00
37202;BME280;37799;52.390;6.136;2024-03-22T07:33:13;101633.75;;;11.38;100.00
37202;BME280;37799;52.390;6.136;2024-03-22T07:35:41;101635.53;;;11.36;100.00
37202;BME280;37799;52.390;6.136;2024-03-22T07:38:06;101635.63;;;11.29;100.00
37202;BME280;37799;52.390;6.136;2024-03-22T07:40:32;101635.38;;;11.44;100.00
37202;BME280;37799;52.390;6.136;2024-03-22T07:42:58;101626.78;;;11.42;100.00
37202;BME280;37799;52.390;6.136;2024-03-22T07:45:24;101643.16;;;11.44;100.00
37202;BME280;37799;52.390;6.136;2024-03-22T07:47:49;101630.28;;;11.39;100.00
37202;BME280;37799;52.390;6.136;2024-03-22T07:50:15;101625.25;;;11.30;100.00
37202;BME280;37799;52.390;6.136;2024-03-22T07:52:40;101626.81;;;11.40;100.00
37202;BME280;37799;52.390;6.136;2024-03-22T07:55:06;101632.91;;;11.38;100.00
37202;BME280;37799;52.390;6.136;2024-03-22T07:57:32;101630.25;;;11.41;100.00
37202;BME280;37799;52.390;6.136;2024-03-22T07:59:58;101623.47;;;11.34;100.00
37202;BME280;37799;52.390;6.136;2024-03-22T08:02:23;101632.78;;;11.44;100.00
37202;BME280;37799;52.390;6.136;2024-03-22T08:04:48;101634.38;;;11.52;100.00
37202;BME280;37799;52.390;6.136;2024-03-22T08:07:14;101636.13;;;11.52;100.00
37202;BME280;37799;52.390;6.136;2024-03-22T08:09:39;101626.91;;;11.36;100.00
37202;BME280;37799;52.390;6.136;2024-03-22T08:12:05;101630.25;;;11.41;100.00
37202;BME280;37799;52.390;6.136;2024-03-22T08:14:31;101634.50;;;11.45;100.00
37202;BME280;37799;52.390;6.136;2024-03-22T08:16:57;101631.25;;;11.34;100.00
37202;BME280;37799;52.390;6.136;2024-03-22T08:19:22;101624.06;;;11.49;100.00
37202;BME280;37799;52.390;6.136;2024-03-22T08:21:47;101634.19;;;11.63;100.00
37202;BME280;37799;52.390;6.136;2024-03-22T08:24:13;101636.63;;;11.74;100.00
37202;BME280;37799;52.390;6.136;2024-03-22T08:26:38;101636.75;;;11.65;100.00
37202;BME280;37799;52.390;6.136;2024-03-22T08:29:05;101637.09;;;11.46;100.00
37202;BME280;37799;52.390;6.136;2024-03-22T08:31:30;101635.34;;;11.45;100.00
37202;BME280;37799;52.390;6.136;2024-03-22T08:33:55;101639.53;;;11.54;100.00
37202;BME280;37799;52.390;6.136;2024-03-22T08:36:22;101634.28;;;11.57;100.00
37202;BME280;37799;52.390;6.136;2024-03-22T08:38:48;101641.25;;;11.55;100.00
37202;BME280;37799;52.390;6.136;2024-03-22T08:41:14;101633.59;;;11.49;100.00
37202;BME280;37799;52.390;6.136;2024-03-22T08:43:39;101637.94;;;11.45;100.00
37202;BME280;37799;52.390;6.136;2024-03-22T08:46:04;101632.00;;;11.40;100.00
37202;BME280;37799;52.390;6.136;2024-03-22T08:48:29;101626.22;;;11.25;100.00
37202;BME280;37799;52.390;6.136;2024-03-22T08:50:55;101623.72;;;11.17;100.00
37202;BME280;37799;52.390;6.136;2024-03-22T08:53:20;101625.16;;;11.36;100.00
37202;BME280;37799;52.390;6.136;2024-03-22T08:55:48;101623.53;;;11.29;100.00
37202;BME280;37799;52.390;6.136;2024-03-22T08:58:14;101626.28;;;11.21;100.00
37202;BME280;37799;52.390;6.136;2024-03-22T09:00:43;101624.81;;;11.02;100.00
37202;BME280;37799;52.390;6.136;2024-03-22T09:03:09;101629.19;;;11.00;100.00
37202;BME280;37799;52.390;6.136;2024-03-22T09:05:34;101620.66;;;10.92;100.00
37202;BME280;37799;52.390;6.136;2024-03-22T09:08:00;101625.78;;;10.97;100.00
37202;BME280;37799;52.390;6.136;2024-03-22T09:10:26;101624.94;;;10.96;100.00
37202;BME280;37799;52.390;6.136;2024-03-22T09:12:51;101627.28;;;11.11;100.00
37202;BME280;37799;52.390;6.136;2024-03-22T09:15:17;101626.47;;;11.09;100.00
37202;BME280;37799;52.390;6.136;2024-03-22T09:17:42;101631.63;;;11.11;100.00
37202;BME280;37799;52.390;6.136;2024-03-22T09:20:08;101624.06;;;10.96;100.00
37202;BME280;37799;52.390;6.136;2024-03-22T09:22:33;101621.53;;;10.91;100.00
37202;BME280;37799;52.390;6.136;2024-03-22T09:24:59;101615.41;;;10.97;100.00
37202;BME280;37799;52.390;6.136;2024-03-22T09:27:24;101605.06;;;10.93;100.00
37202;BME280;37799;52.390;6.136;2024-03-22T09:29:49;101609.28;;;11.02;100.00
37202;BME280;37799;52.390;6.136;2024-03-22T09:32:15;101617.84;;;11.07;100.00
37202;BME280;37799;52.390;6.136;2024-03-22T09:34:40;101612.66;;;11.07;100.00
37202;BME280;37799;52.390;6.136;2024-03-22T09:37:07;101621.38;;;11.02;100.00
37202;BME280;37799;52.390;6.136;2024-03-22T09:39:33;101620.81;;;10.83;100.00
37202;BME280;37799;52.390;6.136;2024-03-22T09:41:59;101620.00;;;10.78;100.00
37202;BME280;37799;52.390;6.136;2024-03-22T09:44:27;101617.34;;;10.84;100.00
37202;BME280;37799;52.390;6.136;2024-03-22T09:46:52;101619.09;;;10.82;100.00
37202;BME280;37799;52.390;6.136;2024-03-22T09:49:18;101614.06;;;10.71;100.00
37202;BME280;37799;52.390;6.136;2024-03-22T09:51:44;101615.66;;;10.80;100.00
37202;BME280;37799;52.390;6.136;2024-03-22T09:54:10;101613.06;;;10.80;100.00
37202;BME280;37799;52.390;6.136;2024-03-22T09:56:38;101615.59;;;10.84;100.00
37202;BME280;37799;52.390;6.136;2024-03-22T09:59:04;101617.41;;;10.78;100.00
37202;BME280;37799;52.390;6.136;2024-03-22T10:01:30;101618.09;;;10.90;100.00
37202;BME280;37799;52.390;6.136;2024-03-22T10:03:56;101610.34;;;10.89;100.00
37202;BME280;37799;52.390;6.136;2024-03-22T10:06:22;101608.78;;;10.77;100.00
37202;BME280;37799;52.390;6.136;2024-03-22T10:08:48;101612.94;;;10.89;100.00
37202;BME280;37799;52.390;6.136;2024-03-22T10:11:13;101611.28;;;10.85;100.00
37202;BME280;37799;52.390;6.136;2024-03-22T10:13:38;101607.69;;;10.92;100.00
37202;BME280;37799;52.390;6.136;2024-03-22T10:16:04;101606.69;;;11.02;100.00
37202;BME280;37799;52.390;6.136;2024-03-22T10:18:32;101610.06;;;11.06;100.00
37202;BME280;37799;52.390;6.136;2024-03-22T10:21:04;101613.59;;;11.02;100.00
37202;BME280;37799;52.390;6.136;2024-03-22T10:23:30;101610.94;;;11.06;100.00
37202;BME280;37799;52.390;6.136;2024-03-22T10:25:56;101606.06;;;10.86;100.00
37202;BME280;37799;52.390;6.136;2024-03-22T10:28:23;101602.41;;;11.00;100.00
37202;BME280;37799;52.390;6.136;2024-03-22T10:30:50;101610.22;;;10.98;100.00
37202;BME280;37799;52.390;6.136;2024-03-22T10:33:18;101598.13;;;10.97;100.00
37202;BME280;37799;52.390;6.136;2024-03-22T10:35:44;101597.34;;;10.92;100.00
37202;BME280;37799;52.390;6.136;2024-03-22T10:38:11;101597.88;;;11.12;100.00
37202;BME280;37799;52.390;6.136;2024-03-22T10:40:39;101585.72;;;11.16;100.00
37202;BME280;37799;52.390;6.136;2024-03-22T10:43:04;101594.97;;;11.31;100.00
37202;BME280;37799;52.390;6.136;2024-03-22T10:45:30;101595.81;;;11.33;100.00
37202;BME280;37799;52.390;6.136;2024-03-22T10:47:56;101593.88;;;11.44;100.00
37202;BME280;37799;52.390;6.136;2024-03-22T10:50:22;101597.19;;;11.53;100.00
37202;BME280;37799;52.390;6.136;2024-03-22T10:52:54;101599.94;;;11.46;100.00
37202;BME280;37799;52.390;6.136;2024-03-22T10:55:32;101594.63;;;11.52;100.00
37202;BME280;37799;52.390;6.136;2024-03-22T10:57:58;101598.25;;;11.42;100.00
37202;BME280;37799;52.390;6.136;2024-03-22T11:00:30;101592.97;;;11.48;100.00
37202;BME280;37799;52.390;6.136;2024-03-22T11:02:56;101599.75;;;11.55;100.00
37202;BME280;37799;52.390;6.136;2024-03-22T11:05:22;101595.50;;;11.51;100.00
37202;BME280;37799;52.390;6.136;2024-03-22T11:07:47;101585.97;;;11.53;100.00
37202;BME280;37799;52.390;6.136;2024-03-22T11:10:13;101587.66;;;11.54;100.00
37202;BME280;37799;52.390;6.136;2024-03-22T11:12:40;101575.50;;;11.59;100.00
37202;BME280;37799;52.390;6.136;2024-03-22T11:15:05;101574.66;;;11.56;100.00
37202;BME280;37799;52.390;6.136;2024-03-22T11:17:31;101575.72;;;11.47;100.00
37202;BME280;37799;52.390;6.136;2024-03-22T11:19:56;101575.66;;;11.50;100.00
37202;BME280;37799;52.390;6.136;2024-03-22T11:22:22;101575.78;;;11.41;100.00
37202;BME280;37799;52.390;6.136;2024-03-22T11:24:47;101575.72;;;11.47;100.00
37202;BME280;37799;52.390;6.136;2024-03-22T11:27:12;101572.16;;;11.51;100.00
37202;BME280;37799;52.390;6.136;2024-03-22T11:29:39;101567.72;;;11.58;100.00
37202;BME280;37799;52.390;6.136;2024-03-22T11:32:07;101572.84;;;11.62;100.00
37202;BME280;37799;52.390;6.136;2024-03-22T11:34:35;101570.81;;;11.76;100.00
37202;BME280;37799;52.390;6.136;2024-03-22T11:37:00;101566.47;;;11.80;100.00
37202;BME280;37799;52.390;6.136;2024-03-22T11:39:25;101567.34;;;11.79;100.00
37202;BME280;37799;52.390;6.136;2024-03-22T11:41:51;101569.19;;;11.72;100.00
37202;BME280;37799;52.390;6.136;2024-03-22T11:44:16;101564.75;;;11.77;100.00
37202;BME280;37799;52.390;6.136;2024-03-22T11:46:44;101556.34;;;11.65;100.00
37202;BME280;37799;52.390;6.136;2024-03-22T11:49:10;101559.72;;;11.68;100.00
37202;BME280;37799;52.390;6.136;2024-03-22T11:51:36;101550.97;;;11.75;100.00
37202;BME280;37799;52.390;6.136;2024-03-22T11:54:03;101557.09;;;11.70;100.00
37202;BME280;37799;52.390;6.136;2024-03-22T11:56:28;101555.47;;;11.66;100.00
37202;BME280;37799;52.390;6.136;2024-03-22T11:59:02;101558.84;;;11.69;100.00
37202;BME280;37799;52.390;6.136;2024-03-22T12:01:32;101545.88;;;11.69;100.00
37202;BME280;37799;52.390;6.136;2024-03-22T12:03:59;101548.63;;;11.62;100.00
37202;BME280;37799;52.390;6.136;2024-03-22T12:06:24;101545.66;;;11.81;100.00
37202;BME280;37799;52.390;6.136;2024-03-22T12:08:49;101526.88;;;11.67;100.00
37202;BME280;37799;52.390;6.136;2024-03-22T12:11:15;101539.28;;;11.53;100.00
37202;BME280;37799;52.390;6.136;2024-03-22T12:13:41;101531.38;;;11.59;100.00
37202;BME280;37799;52.390;6.136;2024-03-22T12:16:06;101528.50;;;11.74;100.00
37202;BME280;37799;52.390;6.136;2024-03-22T12:18:32;101522.94;;;11.93;100.00
37202;BME280;37799;52.390;6.136;2024-03-22T12:20:58;101526.50;;;11.89;100.00
37202;BME280;37799;52.390;6.136;2024-03-22T12:23:24;101523.25;;;11.77;100.00
37202;BME280;37799;52.390;6.136;2024-03-22T12:25:50;101518.03;;;11.77;100.00
37202;BME280;37799;52.390;6.136;2024-03-22T12:28:16;101522.66;;;11.63;100.00
37202;BME280;37799;52.390;6.136;2024-03-22T12:30:41;101523.25;;;11.77;100.00
37202;BME280;37799;52.390;6.136;2024-03-22T12:33:08;101522.41;;;11.75;100.00